Time;durP1;ratioP1;P1;durP2;ratioP2;P2;SDS_P1;SDS_P2;PMS_P1;PMS_P2;Temp;Humidity;BMP_temperature;BMP_pressure;BME280_temperature;BME280_humidity;BME280_pressure;Samples;Min_cycle;Max_cycle;Signal;HPM_P1;HPM_P2
2023/09/20 00:01:26;;;;;;;4.10;3.60;;;20.10;99.90;;;;;;5011876;28;20889;-66
2023/09/20 00:03:51;;;;;;;4.73;3.50;;;20.10;99.90;;;;;;5012953;28;20552;-67
2023/09/20 00:06:17;;;;;;;3.83;3.40;;;20.20;99.90;;;;;;5011889;28;20875;-66
2023/09/20 00:08:43;;;;;;;4.53;3.93;;;20.10;99.90;;;;;;5012851;28;20615;-66
2023/09/20 00:11:15;;;;;;;7.87;3.63;;;20.00;99.90;;;;;;5011862;28;20179;-60
2023/09/20 00:13:41;;;;;;;4.67;3.53;;;20.00;99.90;;;;;;5012858;28;20862;-66
2023/09/20 00:16:09;;;;;;;5.67;3.17;;;20.00;99.90;;;;;;5012429;28;20444;-60
2023/09/20 00:18:36;;;;;;;3.90;3.60;;;19.90;99.90;;;;;;5012696;28;20512;-66
2023/09/20 00:21:01;;;;;;;4.80;3.53;;;19.80;99.90;;;;;;5012760;28;20426;-66
2023/09/20 00:23:28;;;;;;;3.77;3.50;;;19.80;99.90;;;;;;5011409;28;21252;-66
2023/09/20 00:25:54;;;;;;;3.80;3.60;;;19.90;99.90;;;;;;5012235;28;20511;-66
2023/09/20 00:28:20;;;;;;;4.13;3.63;;;19.90;99.90;;;;;;5011547;28;20433;-66
2023/09/20 00:30:45;;;;;;;4.60;3.40;;;19.90;99.90;;;;;;5012752;28;20284;-67
2023/09/20 00:33:12;;;;;;;3.50;3.17;;;20.00;99.90;;;;;;5011681;28;20221;-61
2023/09/20 00:35:41;;;;;;;4.30;3.80;;;20.00;99.90;;;;;;5012571;28;20630;-66
2023/09/20 00:38:07;;;;;;;3.90;3.60;;;19.90;99.90;;;;;;5012394;28;20496;-66
2023/09/20 00:40:35;;;;;;;4.23;3.07;;;19.90;99.90;;;;;;5011669;28;20908;-66
2023/09/20 00:43:04;;;;;;;4.93;4.07;;;19.90;99.90;;;;;;5012036;28;20453;-66
2023/09/20 00:45:30;;;;;;;5.13;3.17;;;19.80;99.90;;;;;;5011663;28;20456;-67
2023/09/20 00:47:57;;;;;;;4.20;3.80;;;19.80;99.90;;;;;;5012425;28;20402;-66
2023/09/20 00:50:27;;;;;;;4.27;3.87;;;19.90;99.90;;;;;;5011693;28;20657;-66
2023/09/20 00:52:54;;;;;;;3.90;3.60;;;20.00;99.90;;;;;;5012254;28;20516;-66
2023/09/20 00:55:24;;;;;;;3.50;3.23;;;20.00;99.90;;;;;;4993765;28;21075;-66
2023/09/20 00:57:53;;;;;;;5.23;3.53;;;20.00;99.90;;;;;;5012480;28;20410;-66
2023/09/20 01:00:29;;;;;;;3.67;3.30;;;19.90;99.90;;;;;;5011378;28;20410;-65
2023/09/20 01:02:57;;;;;;;5.60;3.60;;;20.00;99.90;;;;;;5012267;28;20501;-66
2023/09/20 01:05:25;;;;;;;3.73;3.40;;;20.00;99.90;;;;;;5011615;28;20414;-65
2023/09/20 01:07:56;;;;;;;3.90;3.57;;;20.00;99.90;;;;;;5011209;28;20414;-66
2023/09/20 01:10:26;;;;;;;4.00;3.60;;;20.00;99.90;;;;;;5011299;28;20426;-66
2023/09/20 01:12:59;;;;;;;4.00;3.70;;;20.10;99.90;;;;;;5011613;28;20477;-66
2023/09/20 01:15:27;;;;;;;5.47;4.00;;;20.10;99.90;;;;;;5011413;28;20505;-65
2023/09/20 01:17:57;;;;;;;3.60;3.30;;;20.10;99.90;;;;;;4994519;28;20476;-66
2023/09/20 01:20:27;;;;;;;3.93;3.20;;;20.20;99.90;;;;;;5011473;28;20402;-66
2023/09/20 01:22:56;;;;;;;3.47;3.27;;;20.20;99.90;;;;;;5012195;28;20409;-66
2023/09/20 01:25:25;;;;;;;3.57;3.40;;;20.10;99.90;;;;;;5011165;28;20575;-66
2023/09/20 01:27:56;;;;;;;3.33;3.10;;;20.20;99.90;;;;;;5012058;28;20449;-66
2023/09/20 01:30:27;;;;;;;3.73;3.53;;;20.20;99.90;;;;;;5011347;28;20489;-65
2023/09/20 01:32:57;;;;;;;5.47;3.57;;;20.10;99.90;;;;;;5011735;28;20489;-66
2023/09/20 01:35:26;;;;;;;3.60;3.30;;;20.10;99.90;;;;;;5011015;28;20405;-65
2023/09/20 01:37:53;;;;;;;5.80;3.30;;;20.00;99.90;;;;;;5011980;28;20410;-65
2023/09/20 01:40:23;;;;;;;5.17;4.00;;;20.00;99.90;;;;;;5011712;28;20452;-66
2023/09/20 01:42:49;;;;;;;3.90;3.60;;;20.00;99.90;;;;;;5015630;28;20430;-65
2023/09/20 01:45:20;;;;;;;5.33;4.13;;;20.00;99.90;;;;;;5014648;28;20433;-60
2023/09/20 01:47:54;;;;;;;3.57;3.27;;;20.00;99.90;;;;;;5015221;28;20468;-66
2023/09/20 01:50:24;;;;;;;4.03;3.57;;;20.10;99.90;;;;;;5014696;28;20405;-66
2023/09/20 01:52:57;;;;;;;3.73;3.50;;;20.10;99.90;;;;;;5015197;28;20458;-66
2023/09/20 01:55:25;;;;;;;3.50;3.30;;;20.10;99.90;;;;;;5014415;28;20837;-66
2023/09/20 01:57:52;;;;;;;3.50;3.40;;;20.00;99.90;;;;;;5015218;28;20418;-66
2023/09/20 02:00:22;;;;;;;4.43;4.13;;;20.10;99.90;;;;;;5014240;28;20977;-66
2023/09/20 02:02:53;;;;;;;5.73;3.50;;;20.10;99.90;;;;;;5014798;28;20453;-66
2023/09/20 02:05:21;;;;;;;4.33;3.93;;;20.10;99.90;;;;;;4980824;28;20516;-65
2023/09/20 02:07:48;;;;;;;6.50;3.87;;;20.00;99.90;;;;;;5015022;28;20422;-66
2023/09/20 02:10:16;;;;;;;4.10;3.70;;;20.00;99.90;;;;;;5014844;28;20878;-60
2023/09/20 02:12:55;;;;;;;3.67;3.37;;;20.00;99.90;;;;;;5014448;28;20826;-66
2023/09/20 02:15:23;;;;;;;3.87;3.60;;;20.00;99.90;;;;;;5014031;28;20406;-66
2023/09/20 02:17:50;;;;;;;4.13;3.73;;;20.00;99.90;;;;;;4980950;28;20832;-66
2023/09/20 02:20:19;;;;;;;4.10;3.80;;;20.00;99.90;;;;;;5013994;28;20414;-59
2023/09/20 02:22:50;;;;;;;3.00;2.90;;;19.90;99.90;;;;;;5014524;28;20421;-66
2023/09/20 02:25:24;;;;;;;3.70;3.40;;;20.00;99.90;;;;;;5014151;28;20411;-60
2023/09/20 02:27:51;;;;;;;4.37;3.40;;;19.90;99.90;;;;;;5014472;28;20425;-66
2023/09/20 02:30:19;;;;;;;3.73;3.40;;;19.80;99.90;;;;;;5013686;28;20445;-60
2023/09/20 02:32:52;;;;;;;5.23;4.10;;;19.70;99.90;;;;;;4996748;28;20424;-66
2023/09/20 02:35:19;;;;;;;7.60;3.47;;;19.70;99.90;;;;;;5013694;28;20453;-60
2023/09/20 02:37:46;;;;;;;3.57;3.30;;;19.70;99.90;;;;;;5014384;28;20763;-66
2023/09/20 02:40:14;;;;;;;4.10;3.70;;;19.70;99.90;;;;;;5014468;28;20529;-66
2023/09/20 02:42:44;;;;;;;4.50;3.63;;;19.70;99.90;;;;;;5013775;28;20418;-65
2023/09/20 02:45:12;;;;;;;3.80;3.50;;;19.70;99.90;;;;;;5014290;28;20418;-65
2023/09/20 02:47:41;;;;;;;3.70;3.30;;;19.70;99.90;;;;;;5013244;28;20442;-66
2023/09/20 02:50:13;;;;;;;3.80;3.07;;;19.70;99.90;;;;;;5013783;28;20430;-66
2023/09/20 02:52:40;;;;;;;4.37;3.63;;;19.70;99.90;;;;;;5013148;28;20484;-66
2023/09/20 02:55:12;;;;;;;4.10;3.63;;;19.70;99.90;;;;;;5014096;28;20410;-65
2023/09/20 02:57:38;;;;;;;3.23;2.93;;;19.80;99.90;;;;;;5013293;28;20485;-66
2023/09/20 03:00:14;;;;;;;4.60;4.20;;;19.70;99.90;;;;;;5014005;28;20422;-66
2023/09/20 03:03:00;;;;;;;5.10;3.20;;;19.70;99.90;;;;;;4995639;28;20777;-65
2023/09/20 03:05:27;;;;;;;9.03;3.57;;;19.50;99.90;;;;;;4995579;28;20396;-66
2023/09/20 03:07:54;;;;;;;3.47;3.27;;;19.50;99.90;;;;;;5013717;28;20422;-66
2023/09/20 03:10:23;;;;;;;3.20;3.00;;;19.50;99.90;;;;;;5013089;28;20402;-60
2023/09/20 03:12:54;;;;;;;3.40;3.20;;;19.40;99.90;;;;;;5013485;28;20842;-66
2023/09/20 03:15:23;;;;;;;4.10;3.20;;;19.40;99.90;;;;;;5013162;28;20419;-60
2023/09/20 03:17:56;;;;;;;3.23;3.03;;;19.50;99.90;;;;;;5013687;28;20422;-66
2023/09/20 03:20:25;;;;;;;7.07;3.50;;;19.40;99.90;;;;;;4995250;28;20505;-65
2023/09/20 03:22:54;;;;;;;3.10;2.90;;;19.50;99.90;;;;;;5013447;28;20430;-65
2023/09/20 03:25:23;;;;;;;3.40;3.10;;;19.40;99.90;;;;;;5012824;28;20897;-64
2023/09/20 03:27:50;;;;;;;5.30;3.70;;;19.50;99.90;;;;;;5013538;28;20950;-66
2023/09/20 03:30:22;;;;;;;5.50;3.80;;;19.50;99.90;;;;;;5013210;28;20756;-65
2023/09/20 03:32:49;;;;;;;7.00;3.53;;;19.50;99.90;;;;;;5013546;28;20398;-66
2023/09/20 03:35:17;;;;;;;3.57;3.27;;;19.50;99.90;;;;;;5013407;28;20421;-66
2023/09/20 03:37:44;;;;;;;3.70;2.90;;;19.60;99.90;;;;;;5012368;28;20426;-66
2023/09/20 03:40:11;;;;;;;3.50;3.30;;;19.60;99.90;;;;;;5013392;28;20413;-66
2023/09/20 03:42:40;;;;;;;3.30;3.10;;;19.60;99.90;;;;;;5012204;28;20434;-66
2023/09/20 03:45:10;;;;;;;4.77;4.40;;;19.60;99.90;;;;;;5013314;28;20414;-66
2023/09/20 03:47:39;;;;;;;6.93;3.73;;;19.60;99.90;;;;;;5012348;28;20422;-65
2023/09/20 03:50:12;;;;;;;3.43;3.13;;;19.50;99.90;;;;;;5013284;28;20406;-65
2023/09/20 03:52:39;;;;;;;5.23;5.00;;;19.50;99.90;;;;;;5012311;28;20434;-66
2023/09/20 03:55:05;;;;;;;4.30;4.10;;;19.50;99.90;;;;;;5012874;28;20414;-65
2023/09/20 03:57:32;;;;;;;3.63;2.77;;;19.60;99.90;;;;;;5012269;28;20425;-66
2023/09/20 03:59:58;;;;;;;3.23;3.03;;;19.60;99.90;;;;;;5013100;28;20425;-66
2023/09/20 04:02:24;;;;;;;5.40;5.00;;;19.60;99.90;;;;;;5012210;28;20803;-61
2023/09/20 04:04:50;;;;;;;5.20;4.70;;;19.60;99.90;;;;;;5012579;28;20171;-66
2023/09/20 04:07:17;;;;;;;3.07;2.87;;;19.60;99.90;;;;;;5012561;28;20762;-67
2023/09/20 04:09:44;;;;;;;3.03;2.63;;;19.60;99.90;;;;;;5012054;28;21042;-66
2023/09/20 04:12:12;;;;;;;4.50;3.43;;;19.60;99.90;;;;;;5012592;28;20548;-66
2023/09/20 04:14:38;;;;;;;3.80;3.60;;;19.60;99.90;;;;;;5011909;28;20461;-66
2023/09/20 04:17:07;;;;;;;5.13;4.83;;;19.60;99.90;;;;;;4995315;28;20422;-65
2023/09/20 04:19:33;;;;;;;3.17;2.97;;;19.60;99.90;;;;;;5011986;28;20897;-65
2023/09/20 04:22:04;;;;;;;4.97;4.63;;;19.50;99.90;;;;;;5012451;28;20426;-66
2023/09/20 04:24:32;;;;;;;3.97;3.43;;;19.50;99.90;;;;;;5011920;28;20395;-66
2023/09/20 04:26:58;;;;;;;3.00;2.73;;;19.40;99.90;;;;;;5012305;28;20453;-66
2023/09/20 04:29:25;;;;;;;3.70;3.40;;;19.30;99.90;;;;;;5011998;28;20761;-60
2023/09/20 04:31:52;;;;;;;6.80;3.93;;;19.20;99.90;;;;;;5012875;28;20434;-65
2023/09/20 04:34:18;;;;;;;4.40;4.10;;;19.20;99.90;;;;;;5012391;28;20464;-68
2023/09/20 04:36:45;;;;;;;3.33;3.13;;;19.20;99.90;;;;;;5011672;28;20406;-68
2023/09/20 04:39:11;;;;;;;5.87;5.37;;;19.20;99.90;;;;;;5012514;28;20493;-68
2023/09/20 04:41:38;;;;;;;4.13;3.80;;;19.20;99.90;;;;;;5011475;28;20422;-68
2023/09/20 04:44:07;;;;;;;3.53;3.20;;;19.30;99.90;;;;;;5012252;28;20943;-68
2023/09/20 04:46:35;;;;;;;3.57;3.00;;;19.40;99.90;;;;;;5010997;28;20422;-68
2023/09/20 04:49:02;;;;;;;3.70;3.50;;;19.30;99.90;;;;;;5012273;28;20484;-68
2023/09/20 04:51:28;;;;;;;5.63;4.13;;;19.30;99.90;;;;;;5011599;28;20424;-68
2023/09/20 04:53:55;;;;;;;3.97;3.67;;;19.30;99.90;;;;;;5012438;28;20454;-68
2023/09/20 04:56:20;;;;;;;4.90;4.50;;;19.40;99.90;;;;;;5012319;28;20417;-68
2023/09/20 04:58:46;;;;;;;4.20;3.90;;;19.50;99.90;;;;;;5011285;28;21318;-68
2023/09/20 05:01:12;;;;;;;4.43;4.00;;;19.50;99.90;;;;;;5012208;28;20175;-68
2023/09/20 05:03:39;;;;;;;4.87;4.33;;;19.50;99.90;;;;;;5011230;28;20183;-68
2023/09/20 05:06:05;;;;;;;3.97;3.17;;;19.50;99.90;;;;;;5012388;28;20163;-68
2023/09/20 05:08:32;;;;;;;4.10;3.10;;;19.50;99.90;;;;;;5011177;28;20429;-70
2023/09/20 05:10:57;;;;;;;6.00;5.57;;;19.50;99.90;;;;;;4994340;28;20457;-67
2023/09/20 05:13:23;;;;;;;4.30;3.90;;;19.50;99.90;;;;;;5012174;28;20513;-68
2023/09/20 05:15:52;;;;;;;5.20;4.07;;;19.50;99.90;;;;;;5013007;28;20442;-68
2023/09/20 05:18:20;;;;;;;3.70;3.43;;;19.50;99.90;;;;;;5015779;28;20418;-68
2023/09/20 05:20:46;;;;;;;4.97;2.90;;;19.50;99.90;;;;;;5015046;28;20664;-68
2023/09/20 05:23:12;;;;;;;6.13;5.67;;;19.60;99.90;;;;;;5015730;28;20417;-68
2023/09/20 05:25:41;;;;;;;4.83;4.43;;;19.60;99.90;;;;;;5014950;28;20426;-68
2023/09/20 05:28:07;;;;;;;5.37;4.53;;;19.50;99.90;;;;;;5016086;28;20468;-66
2023/09/20 05:30:33;;;;;;;3.10;2.80;;;19.50;99.90;;;;;;5014343;28;20422;-67
2023/09/20 05:32:59;;;;;;;3.53;3.27;;;19.50;99.90;;;;;;5015528;28;20507;-68
2023/09/20 05:35:28;;;;;;;5.13;4.77;;;19.50;99.90;;;;;;5015609;28;20410;-68
2023/09/20 05:37:54;;;;;;;3.37;3.20;;;19.60;99.90;;;;;;5015368;28;20175;-69
2023/09/20 05:40:21;;;;;;;3.93;3.63;;;19.60;99.90;;;;;;5015447;28;20394;-68
2023/09/20 05:42:50;;;;;;;4.23;3.93;;;19.60;99.90;;;;;;5014749;28;20505;-68
2023/09/20 05:45:19;;;;;;;3.90;3.70;;;19.50;99.90;;;;;;5015160;28;20418;-69
2023/09/20 05:47:45;;;;;;;5.90;5.20;;;19.50;99.90;;;;;;5014641;28;20406;-68
2023/09/20 05:50:13;;;;;;;4.20;3.90;;;19.50;99.90;;;;;;5015339;28;20520;-68
2023/09/20 05:52:43;;;;;;;5.33;4.80;;;19.50;99.90;;;;;;5014429;28;20406;-68
2023/09/20 05:55:16;;;;;;;4.63;4.20;;;19.60;99.90;;;;;;5015032;28;20403;-68
2023/09/20 05:57:43;;;;;;;3.97;3.70;;;19.60;99.90;;;;;;5014091;28;20450;-68
2023/09/20 06:00:22;;;;;;;5.97;5.60;;;19.50;99.90;;;;;;5014833;28;20426;-68
2023/09/20 06:02:51;;;;;;;4.47;4.17;;;19.50;99.90;;;;;;5014593;28;20397;-68
2023/09/20 06:05:24;;;;;;;4.57;4.03;;;19.40;99.90;;;;;;5015165;28;20410;-68
2023/09/20 06:07:51;;;;;;;4.70;4.30;;;19.50;99.90;;;;;;5014150;28;20410;-68
2023/09/20 06:10:18;;;;;;;3.50;3.20;;;19.40;99.90;;;;;;5014980;28;20899;-68
2023/09/20 06:12:47;;;;;;;3.40;3.13;;;19.40;99.90;;;;;;5013595;28;20461;-68
2023/09/20 06:15:15;;;;;;;4.03;3.73;;;19.30;99.90;;;;;;5014920;28;20441;-68
2023/09/20 06:17:48;;;;;;;4.00;3.70;;;19.30;99.90;;;;;;5013972;28;20425;-68
2023/09/20 06:20:20;;;;;;;5.20;4.70;;;19.20;99.90;;;;;;5014800;28;20428;-68
2023/09/20 06:22:49;;;;;;;4.23;3.83;;;19.20;99.90;;;;;;5013711;28;20406;-68
2023/09/20 06:25:15;;;;;;;4.00;3.67;;;19.30;99.90;;;;;;5014689;28;20406;-68
2023/09/20 06:27:41;;;;;;;5.17;4.10;;;19.40;99.90;;;;;;5013568;28;20477;-68
2023/09/20 06:30:13;;;;;;;4.13;3.73;;;19.40;99.90;;;;;;5014070;28;20425;-68
2023/09/20 06:32:41;;;;;;;4.70;4.30;;;19.40;99.90;;;;;;5013744;28;20449;-68
2023/09/20 06:35:07;;;;;;;3.80;3.50;;;19.40;99.90;;;;;;5014340;28;20430;-68
2023/09/20 06:37:34;;;;;;;3.70;3.50;;;19.40;99.90;;;;;;5013127;28;20418;-67
2023/09/20 06:40:00;;;;;;;5.03;4.73;;;19.30;99.90;;;;;;5013998;28;20430;-68
2023/09/20 06:42:30;;;;;;;4.07;3.80;;;19.40;99.90;;;;;;5013785;28;20437;-68
2023/09/20 06:44:56;;;;;;;5.40;5.20;;;19.40;99.90;;;;;;5012051;28;20453;-72
2023/09/20 06:47:22;;;;;;;2.87;2.73;;;19.40;99.90;;;;;;5013827;28;20422;-73
2023/09/20 06:49:48;;;;;;;5.33;5.10;;;19.30;99.90;;;;;;5013272;28;20443;-72
2023/09/20 06:52:14;;;;;;;4.63;4.23;;;19.40;99.90;;;;;;5014169;28;20533;-72
2023/09/20 06:54:40;;;;;;;4.37;4.07;;;19.50;99.90;;;;;;5013298;28;20199;-73
2023/09/20 06:57:05;;;;;;;3.80;3.60;;;19.60;99.90;;;;;;5014310;28;20183;-72
2023/09/20 06:59:37;;;;;;;4.50;3.53;;;19.60;99.90;;;;;;5013810;28;20194;-64
2023/09/20 07:02:03;;;;;;;4.27;3.97;;;19.70;99.90;;;;;;4996734;28;20672;-72
2023/09/20 07:04:31;;;;;;;3.67;3.33;;;19.60;99.90;;;;;;5013742;28;20791;-69
2023/09/20 07:07:03;;;;;;;4.03;3.63;;;19.70;99.90;;;;;;5013251;28;20644;-72
2023/09/20 07:09:31;;;;;;;3.93;3.60;;;19.90;99.90;;;;;;5013758;28;20497;-72
2023/09/20 07:12:01;;;;;;;3.83;3.53;;;19.70;99.90;;;;;;5013038;28;20553;-73
2023/09/20 07:14:31;;;;;;;4.40;4.03;;;19.90;99.90;;;;;;5013763;28;20452;-72
2023/09/20 07:17:00;;;;;;;4.27;3.17;;;19.90;99.90;;;;;;5013470;28;20564;-72
2023/09/20 07:19:29;;;;;;;4.03;3.83;;;20.10;99.90;;;;;;5013619;28;20458;-71
2023/09/20 07:21:56;;;;;;;5.93;3.80;;;20.10;99.90;;;;;;5012822;28;20984;-76
2023/09/20 07:24:24;;;;;;;4.00;3.80;;;20.30;99.90;;;;;;5012990;28;20426;-67
2023/09/20 07:26:51;;;;;;;3.90;3.70;;;20.10;99.90;;;;;;5012485;28;20425;-71
2023/09/20 07:29:17;;;;;;;4.00;3.70;;;20.10;99.90;;;;;;5013389;28;20794;-71
2023/09/20 07:31:45;;;;;;;4.17;3.50;;;19.90;99.90;;;;;;5012393;28;20422;-67
2023/09/20 07:34:13;;;;;;;4.33;4.13;;;19.80;99.90;;;;;;5011901;28;20481;-67
2023/09/20 07:36:43;;;;;;;5.13;4.10;;;19.80;99.90;;;;;;5008114;28;20766;-70
2023/09/20 07:39:13;;;;;;;4.07;3.77;;;19.90;99.90;;;;;;5012019;28;20902;-71
2023/09/20 07:41:50;;;;;;;4.03;3.83;;;20.00;99.90;;;;;;5012067;28;20446;-71
2023/09/20 07:44:17;;;;;;;4.00;3.70;;;20.20;99.90;;;;;;5010240;28;20453;-71
2023/09/20 07:46:43;;;;;;;4.07;3.77;;;20.40;99.90;;;;;;5011651;28;20453;-72
2023/09/20 07:49:09;;;;;;;4.07;3.67;;;20.50;99.90;;;;;;5013472;28;20414;-71
2023/09/20 07:51:37;;;;;;;4.00;3.70;;;20.30;99.90;;;;;;4994755;28;20421;-62
2023/09/20 07:54:09;;;;;;;3.87;3.53;;;20.50;99.90;;;;;;4993863;28;20544;-67
2023/09/20 07:56:39;;;;;;;4.80;4.40;;;20.50;99.90;;;;;;5010757;28;20979;-62
2023/09/20 07:59:05;;;;;;;3.70;3.50;;;20.50;99.90;;;;;;5011446;28;20449;-67
2023/09/20 08:01:32;;;;;;;3.77;3.47;;;20.50;99.90;;;;;;5012454;28;20446;-67
2023/09/20 08:04:00;;;;;;;3.80;3.60;;;20.50;99.90;;;;;;4993875;28;21007;-68
2023/09/20 08:06:29;;;;;;;3.70;3.30;;;20.60;99.90;;;;;;4994393;28;20525;-67
2023/09/20 08:08:58;;;;;;;4.93;4.07;;;20.60;99.90;;;;;;5011493;28;20435;-61
2023/09/20 08:11:24;;;;;;;3.83;3.50;;;20.50;99.90;;;;;;5011773;28;20433;-61
2023/09/20 08:13:52;;;;;;;3.83;3.53;;;20.50;99.90;;;;;;5010848;28;20469;-61
2023/09/20 08:16:18;;;;;;;4.77;4.23;;;20.70;99.90;;;;;;5012776;28;20426;-63
2023/09/20 08:21:34;;;;;;;2.60;2.50;;;20.70;99.90;;;;;;5011929;28;20461;-60
2023/09/20 09:00:21;;;;;;;4.00;3.70;;;20.60;99.90;;;;;;5016238;28;20398;-60
2023/09/20 09:02:52;;;;;;;3.40;3.10;;;20.70;99.90;;;;;;5015612;28;20390;-60
2023/09/20 09:05:20;;;;;;;3.83;3.63;;;20.80;99.90;;;;;;5016433;28;20398;-60
2023/09/20 09:07:47;;;;;;;3.73;3.43;;;20.70;99.90;;;;;;5015751;28;20406;-60
2023/09/20 09:10:13;;;;;;;4.53;4.33;;;20.70;99.90;;;;;;5016295;28;20410;-61
2023/09/20 09:12:41;;;;;;;3.83;3.67;;;20.90;99.90;;;;;;5015763;28;20971;-63
2023/09/20 09:15:09;;;;;;;83.10;58.40;;;20.90;99.90;;;;;;5015879;28;20501;-60
2023/09/20 09:17:39;;;;;;;30.20;26.53;;;20.90;99.90;;;;;;5016195;28;20418;-60
2023/09/20 09:20:09;;;;;;;4.40;3.83;;;21.10;99.90;;;;;;5015926;28;20402;-60
2023/09/20 09:22:35;;;;;;;4.07;3.60;;;21.20;99.90;;;;;;5016030;28;20417;-60
2023/09/20 09:25:01;;;;;;;3.83;3.63;;;21.20;99.90;;;;;;4997994;28;20416;-61
2023/09/20 09:27:33;;;;;;;5.50;5.20;;;21.00;99.90;;;;;;5016263;28;20446;-61
2023/09/20 09:29:59;;;;;;;3.90;3.70;;;21.10;99.90;;;;;;5015012;28;20419;-61
2023/09/20 09:32:24;;;;;;;3.40;3.20;;;21.30;99.90;;;;;;5015703;28;20913;-60
2023/09/20 09:34:50;;;;;;;3.60;3.40;;;21.30;99.90;;;;;;5014581;28;20233;-60
2023/09/20 09:37:17;;;;;;;4.70;4.50;;;21.30;99.90;;;;;;5015855;28;20171;-60
2023/09/20 09:39:59;;;;;;;6.83;6.50;;;21.30;99.90;;;;;;5015039;28;20163;-61
2023/09/20 09:42:25;;;;;;;3.63;3.40;;;21.30;99.90;;;;;;5015356;28;20422;-61
2023/09/20 09:44:52;;;;;;;6.17;5.83;;;21.30;99.90;;;;;;5014677;28;20406;-63
2023/09/20 09:47:18;;;;;;;3.40;3.30;;;21.20;99.90;;;;;;5015526;28;20171;-60
2023/09/20 09:49:46;;;;;;;3.07;2.97;;;21.00;99.90;;;;;;5015067;28;20766;-63
2023/09/20 09:52:13;;;;;;;3.47;3.27;;;20.90;99.90;;;;;;5015426;28;20416;-60
2023/09/20 09:54:39;;;;;;;3.70;3.50;;;20.80;99.90;;;;;;5015308;28;20814;-60
2023/09/20 09:57:05;;;;;;;5.57;5.27;;;20.90;99.90;;;;;;5014725;28;20406;-60
2023/09/20 09:59:31;;;;;;;2.97;2.80;;;21.10;99.90;;;;;;5015088;28;20894;-60
2023/09/20 10:02:00;;;;;;;4.97;4.77;;;21.20;99.90;;;;;;5013205;28;20421;-61
2023/09/20 10:04:26;;;;;;;3.07;2.87;;;21.40;99.90;;;;;;5015134;28;20226;-60
2023/09/20 10:07:09;;;;;;;3.43;3.33;;;21.50;99.90;;;;;;5014501;28;20418;-60
2023/09/20 10:09:39;;;;;;;3.10;2.90;;;21.50;99.90;;;;;;5015271;28;20438;-60
2023/09/20 10:12:08;;;;;;;3.40;3.10;;;21.30;99.90;;;;;;4996496;28;20624;-60
2023/09/20 10:14:38;;;;;;;2.97;2.77;;;21.40;99.90;;;;;;5014951;28;20488;-60
2023/09/20 10:17:08;;;;;;;3.50;3.30;;;21.30;99.90;;;;;;5014341;28;20452;-60
2023/09/20 10:19:36;;;;;;;3.83;3.57;;;21.50;99.90;;;;;;5014974;28;20410;-60
2023/09/20 10:22:09;;;;;;;55.67;42.63;;;21.60;99.90;;;;;;5014180;28;20421;-60
2023/09/20 10:24:58;;;;;;;40.07;33.03;;;21.70;99.90;;;;;;5014874;28;20417;-60
2023/09/20 10:27:30;;;;;;;3.40;2.90;;;21.60;99.90;;;;;;5014613;28;20464;-60
2023/09/20 10:30:05;;;;;;;3.20;2.90;;;21.70;99.90;;;;;;5014012;28;20774;-60
2023/09/20 10:32:34;;;;;;;4.50;4.30;;;21.80;99.90;;;;;;5014984;28;20483;-60
2023/09/20 10:35:27;;;;;;;2.40;2.27;;;22.00;99.90;;;;;;5013650;28;20827;-60
2023/09/20 10:38:07;;;;;;;4.07;3.80;;;21.90;99.90;;;;;;4996611;28;20411;-60
2023/09/20 10:40:48;;;;;;;4.67;4.30;;;22.10;99.90;;;;;;5014608;28;20509;-60
2023/09/20 10:43:43;;;;;;;3.97;3.77;;;22.20;99.90;;;;;;5014329;28;20426;-60
2023/09/20 10:46:10;;;;;;;4.47;4.07;;;22.20;99.90;;;;;;5014318;28;20960;-60
2023/09/20 10:48:43;;;;;;;4.17;3.87;;;22.20;99.90;;;;;;5014762;28;20522;-60
2023/09/20 10:51:10;;;;;;;3.50;3.30;;;22.30;99.90;;;;;;5014139;28;20409;-60
2023/09/20 10:53:42;;;;;;;3.10;3.00;;;22.40;99.90;;;;;;5014275;28;20461;-60
2023/09/20 10:56:09;;;;;;;3.53;3.33;;;22.50;99.90;;;;;;5013200;28;20791;-60
2023/09/20 10:58:38;;;;;;;4.10;3.90;;;22.30;99.90;;;;;;5013857;28;20889;-60
2023/09/20 11:01:06;;;;;;;4.07;3.70;;;22.30;99.90;;;;;;4995739;28;21266;-60
2023/09/20 11:03:32;;;;;;;4.03;3.63;;;22.30;99.90;;;;;;5013973;28;20827;-60
2023/09/20 11:05:58;;;;;;;3.20;3.10;;;22.20;99.90;;;;;;5013166;28;20438;-60
2023/09/20 11:08:24;;;;;;;3.53;3.33;;;22.30;99.90;;;;;;5014361;28;20225;-60
2023/09/20 11:10:50;;;;;;;5.00;4.50;;;22.40;99.90;;;;;;5013119;28;20410;-62
2023/09/20 11:13:19;;;;;;;13.60;12.03;;;22.70;99.90;;;;;;4994779;28;20489;-60
2023/09/20 11:15:48;;;;;;;169.07;150.87;;;22.80;99.90;;;;;;5013428;28;20425;-60
2023/09/20 11:18:19;;;;;;;4.40;4.10;;;23.10;99.90;;;;;;5013929;28;20501;-60
2023/09/20 11:20:47;;;;;;;4.77;4.37;;;23.30;99.90;;;;;;5013444;28;20762;-60
2023/09/20 11:23:13;;;;;;;3.10;3.00;;;23.10;99.90;;;;;;5012864;28;20520;-61
2023/09/20 11:25:41;;;;;;;3.57;3.37;;;23.10;99.90;;;;;;5013197;28;20764;-62
2023/09/20 11:28:09;;;;;;;4.07;3.80;;;23.10;99.90;;;;;;5008910;28;20417;-61
2023/09/20 11:30:36;;;;;;;3.47;3.27;;;22.90;99.90;;;;;;5013127;28;20814;-60
2023/09/20 11:33:02;;;;;;;3.63;3.43;;;23.20;99.90;;;;;;5011774;28;20497;-61
2023/09/20 11:35:33;;;;;;;3.70;3.40;;;23.30;99.90;;;;;;5013143;28;20185;-60
2023/09/20 11:38:00;;;;;;;3.50;3.30;;;23.20;99.90;;;;;;5009560;28;20643;-60
2023/09/20 11:40:26;;;;;;;3.40;3.20;;;23.10;99.90;;;;;;4994405;28;20936;-60
2023/09/20 11:42:52;;;;;;;3.80;3.60;;;23.00;99.90;;;;;;5012584;28;20426;-61
2023/09/20 11:45:21;;;;;;;3.53;3.33;;;23.00;99.90;;;;;;5013240;28;20542;-61
2023/09/20 11:47:51;;;;;;;4.00;3.80;;;23.00;99.90;;;;;;5009900;28;20433;-61
2023/09/20 11:50:17;;;;;;;3.93;3.73;;;23.00;99.90;;;;;;5012786;28;20476;-61
2023/09/20 11:52:47;;;;;;;3.70;3.50;;;22.90;99.90;;;;;;4992244;28;20410;-61
2023/09/20 11:55:14;;;;;;;3.77;3.57;;;22.90;99.90;;;;;;4992732;28;20275;-61
2023/09/20 11:57:45;;;;;;;2.80;2.50;;;22.90;99.90;;;;;;5012555;28;20406;-60
2023/09/20 12:00:19;;;;;;;3.70;3.50;;;22.80;99.90;;;;;;4994419;28;20806;-61
2023/09/20 12:02:45;;;;;;;3.60;2.50;;;22.70;99.90;;;;;;5012816;28;20414;-60
2023/09/20 12:05:11;;;;;;;3.50;3.30;;;22.70;99.90;;;;;;5011394;28;20421;-60
2023/09/20 12:07:37;;;;;;;3.53;3.30;;;22.60;99.90;;;;;;5013133;28;20517;-60
2023/09/20 12:10:04;;;;;;;5.43;5.23;;;22.60;99.90;;;;;;5012212;28;20786;-61
2023/09/20 12:12:31;;;;;;;3.50;3.30;;;22.70;99.90;;;;;;4994705;28;20470;-60
2023/09/20 12:14:58;;;;;;;4.40;4.20;;;22.80;99.90;;;;;;5012126;28;20461;-60
2023/09/20 12:17:24;;;;;;;3.90;3.70;;;22.80;99.90;;;;;;5012833;28;20414;-60
2023/09/20 12:19:50;;;;;;;3.20;3.00;;;22.80;99.50;;;;;;5012743;28;20428;-63
2023/09/20 12:22:15;;;;;;;2.90;2.70;;;22.90;99.90;;;;;;5012432;28;20241;-60
2023/09/20 12:24:41;;;;;;;3.63;3.20;;;22.90;99.10;;;;;;5012317;28;20815;-60
2023/09/20 12:27:07;;;;;;;3.90;3.70;;;22.80;99.70;;;;;;5011553;28;20175;-60
2023/09/20 12:29:32;;;;;;;3.90;3.70;;;22.80;99.80;;;;;;5012440;28;20281;-60
2023/09/20 12:31:58;;;;;;;5.90;5.53;;;22.80;99.90;;;;;;4994255;28;20187;-61
2023/09/20 12:34:24;;;;;;;3.40;3.20;;;22.90;99.90;;;;;;5012042;28;20654;-60
2023/09/20 12:36:51;;;;;;;4.03;3.93;;;22.80;99.90;;;;;;5011871;28;20203;-63
2023/09/20 12:39:17;;;;;;;3.37;3.17;;;22.70;99.90;;;;;;5011891;28;20468;-60
2023/09/20 12:41:43;;;;;;;3.37;3.27;;;22.60;99.70;;;;;;5012202;28;20183;-60
2023/09/20 12:44:09;;;;;;;4.10;3.90;;;22.50;99.90;;;;;;5011644;28;20183;-60
2023/09/20 12:46:37;;;;;;;4.50;4.20;;;22.40;99.90;;;;;;5012375;28;20542;-61
2023/09/20 12:49:04;;;;;;;3.10;2.90;;;22.50;99.90;;;;;;5011644;28;20406;-60
2023/09/20 12:51:31;;;;;;;194.17;157.77;;;22.40;99.90;;;;;;5012474;28;20187;-60
2023/09/20 12:53:56;;;;;;;68.00;55.83;;;22.50;99.90;;;;;;5011485;28;20790;-61
2023/09/20 12:56:22;;;;;;;108.27;96.23;;;22.60;99.90;;;;;;5012778;28;20440;-60
2023/09/20 12:58:50;;;;;;;4.33;4.10;;;22.70;99.90;;;;;;5012458;28;20885;-60
2023/09/20 13:01:16;;;;;;;4.30;4.00;;;22.70;99.90;;;;;;5011693;28;20278;-60
2023/09/20 13:03:43;;;;;;;3.30;3.10;;;22.60;99.90;;;;;;5012366;28;20406;-60
2023/09/20 13:06:13;;;;;;;3.30;3.17;;;22.70;99.90;;;;;;5011478;28;20171;-61
2023/09/20 13:08:41;;;;;;;5.70;3.30;;;22.70;99.90;;;;;;5012152;28;20411;-60
2023/09/20 13:11:10;;;;;;;4.77;4.47;;;22.70;99.90;;;;;;5011514;28;20524;-60
2023/09/20 13:13:41;;;;;;;4.40;4.20;;;22.70;99.90;;;;;;5012326;28;20583;-60
2023/09/20 13:16:09;;;;;;;3.47;3.20;;;22.70;99.90;;;;;;5011590;28;20398;-61
2023/09/20 13:18:38;;;;;;;4.37;3.07;;;22.70;99.90;;;;;;5012171;28;20420;-60
2023/09/20 13:21:04;;;;;;;3.73;3.40;;;22.70;99.90;;;;;;5011360;28;20423;-60
2023/09/20 13:23:30;;;;;;;3.73;3.53;;;22.80;99.90;;;;;;5012436;28;20410;-60
2023/09/20 13:25:56;;;;;;;3.50;3.30;;;22.90;99.90;;;;;;5011670;28;20457;-65
2023/09/20 13:28:22;;;;;;;5.23;3.63;;;23.10;99.90;;;;;;5012153;28;20455;-59
2023/09/20 13:30:51;;;;;;;3.40;3.30;;;23.10;99.90;;;;;;5011817;28;20893;-58